• Join FlightAware (Why Join?)
  • Login
  • US Flag 
01:39AM EDT


 

Airport Tracker/Info


-or-


 

Live Flight TrackerFlight Track Log ✈ N415JA ✈ 04-Aug-2014 ✈ KTPA - KTMB

Flight Track Log - Related Links

Times and Time Zones

All times are in EDT time to prevent confusion due to time zone crossing. See the N415JA flight status page for this flight to view local times or setup timezone preferences in your user account.

Time Position Orientation Groundspeed Altitude Reporting Facility
EDT Latitude Longitude Course Direction KTS MPH feet Rate Location/Type
05:04PM 27.9833 -82.5333 360° North 167 192 700  Level Tampa TRACON
05:04PM 28.0167 -82.5333 360° North 207 238 2,500 3,240 Climbing Tampa TRACON
05:05PM 28.0667 -82.5833 319° Northwest 263 303 6,600 2,760 Climbing Tampa TRACON
05:08PM 27.9286 -82.5747 177° South 309 356 11,700 2,460 Climbing Miami Center
05:09PM 27.8231 -82.5392 163° South 331 381 14,400 2,460 Climbing Miami Center
05:10PM 27.7306 -82.4953 157° South 354 407 16,800 2,220 Climbing Miami Center
05:11PM 27.6303 -82.4489 158° South 355 409 19,000 1,020 Climbing Miami Center
05:12PM 27.5361 -82.4053 158° South 376 433 19,000  Level Miami Center
05:13PM 27.4356 -82.3597 158° South 375 432 19,000  Level Miami Center
05:14PM 27.3461 -82.2964 148° Southeast 368 423 19,000  Level Miami Center
05:15PM 27.2583 -82.2161 141° Southeast 383 441 19,000  Level Miami Center
05:16PM 27.1750 -82.1397 141° Southeast 373 429 19,000  Level Miami Center
05:17PM 27.0992 -82.0694 140° Southeast 368 423 19,000  Level Miami Center
05:18PM 27.0167 -81.9936 141° Southeast 369 425 19,000  Level Miami Center
05:19PM 26.9475 -81.9300 141° Southeast 357 411 19,000  Level Miami Center
05:20PM 26.8711 -81.8600 141° Southeast 354 407 19,000  Level Miami Center
05:21PM 26.7767 -81.7739 141° Southeast 366 421 19,000  Level Miami Center
05:22PM 26.6978 -81.7019 141° Southeast 367 422 19,000  Level Miami Center
05:23PM 26.6153 -81.6269 141° Southeast 365 420 19,000 -300 Level Miami Center
05:24PM 26.5344 -81.5522 140° Southeast 360 414 18,400 -1,260 Descending Miami Center
05:25PM 26.4556 -81.4817 141° Southeast 355 409 16,400 -1,980 Descending Miami Center
05:26PM 26.3814 -81.4144 141° Southeast 348 400 14,400 -1,860 Descending Miami Center
05:27PM 26.3036 -81.3444 141° Southeast 333 383 12,600 -1,620 Descending Miami Center
05:28PM 26.2328 -81.2800 141° Southeast 331 381 11,100 -1,260 Descending Miami Center
05:29PM 26.1561 -81.2108 141° Southeast 331 381 10,000 -840 Descending Miami Center
05:30PM 26.1303 -81.1867 140° Southeast 331 381 10,000  Level Miami Center
05:30PM 26.1047 -81.1636 141° Southeast 327 376 10,000 -180 Level Miami Center
05:30PM 26.0864 -81.1478 142° Southeast 327 376 9,900 60 Descending Miami Center
05:31PM 26.0336 -81.0994 141° Southeast 327 376 10,100 -120 Climbing Miami Center
05:31PM 26.0114 -81.0803 142° Southeast 325 374 9,800 -900 Descending Miami Center
05:32PM 25.9669 -81.0336 137° Southeast 287 330 9,200 -900 Descending Miami Center
05:32PM 25.9567 -81.0150 122° Southeast 288 331 8,900 -900 Descending Miami Center
05:33PM 25.9197 -80.9578 126° Southeast 301 346 8,300 -900 Descending Miami Center
05:33PM 25.9078 -80.9403 127° Southeast 297 342 8,000 -300 Descending Miami Center
05:34PM 25.8642 -80.8814 129° Southeast 291 335 8,000  Level Miami Center
05:34PM 25.8564 -80.8714 131° Southeast 296 341 8,000  Level Miami Center
05:35PM 25.8103 -80.8075 129° Southeast 293 337 8,000  Level Miami Center
05:35PM 25.8067 -80.8000 118° Southeast 293 337 8,000  Level Miami Center
05:36PM 25.7631 -80.7319 125° Southeast 291 335 8,000 -120 Level Miami Center
05:36PM 25.7589 -80.7278 138° Southeast 292 336 7,900 -1,320 Descending Miami Center
05:37PM 25.7017 -80.6761 141° Southeast 282 325 6,700 -1,620 Descending Miami Center
05:37PM 25.6892 -80.6650 141° Southeast 282 325 6,300 -1,500 Descending Miami Center
05:38PM 25.6494 -80.6119 130° Southeast 287 330 5,200 -1,560 Descending Miami Center
05:38PM 25.6431 -80.5886 107° East 285 328 4,700 -1,680 Descending Miami Center
05:39PM 25.6236 -80.5242 108° East 290 334 3,500 -1,380 Descending Miami Center
05:39PM 25.6183 -80.5047 107° East 287 330 3,300 -540 Descending Miami Center
05:40PM 25.6058 -80.4467 103° East 278 320 3,000 -300 Descending Miami Center
05:40PM 25.6094 -80.4167 82° East 275 316 3,000  Level Miami Center
05:41PM 25.6128 -80.3686 86° East 242 278 3,000  Level Miami Center
05:42PM 25.6156 -80.3406 84° East 247 284 3,000 -600 Level Miami Center
05:42PM 25.6114 -80.2922 95° East 237 273 2,400 -900 Descending Miami Center
05:43PM 25.6086 -80.2703 98° East 231 266 2,100 -420 Descending Miami Center
05:43PM 25.6011 -80.2222 100° East 196 226 2,000 -120 Descending Miami Center
05:44PM 25.6014 -80.2050 89° East 217 250 2,000  Level Miami Center
05:44PM 25.6336 -80.2061 358° North 178 205 2,000  Level Miami Center
05:45PM 25.6392 -80.2156 303° West 185 213 2,000  Level Miami Center
05:45PM 25.6494 -80.2514 288° West 151 174 2,000  Level Miami Center
05:46PM 25.6503 -80.2611 275° West 157 181 2,000  Level Miami Center
05:46PM 25.6483 -80.3019 267° West 150 173 2,000  Level Miami Center
05:47PM 25.6489 -80.3075 276° West 155 178 2,000 -720 Level Miami Center
05:47PM 25.6456 -80.3458 264° West 124 143 1,300 -780 Descending Miami Center
05:48PM 25.6472 -80.3469 329° Northwest 134 154 1,200 -720 Descending Miami Center
05:48PM 25.6453 -80.3850 267° West 129 148 600 -720 Descending Miami Center
05:49PM 25.6450 -80.3947 268° West 131 151 500 -420 Descending Miami Center
05:50PM 25.6431 -80.4292 266° West 130 150 100 -420 Descending Miami Center
05:52PM 25.6476 -80.4332 20° North  Level Estimated